createdAt,value
2018-07-25T00:00:38.740Z,18.97
2018-07-25T00:03:10.809Z,19.37
2018-07-25T00:05:39.066Z,16.20
2018-07-25T00:08:07.303Z,15.77
2018-07-25T00:10:40.908Z,17.97
2018-07-25T00:13:09.492Z,18.77
2018-07-25T00:15:37.717Z,17.27
2018-07-25T00:18:05.995Z,21.20
2018-07-25T00:20:34.262Z,27.50
2018-07-25T00:23:02.695Z,16.40
2018-07-25T00:25:30.958Z,20.77
2018-07-25T00:27:59.200Z,23.40
2018-07-25T00:30:27.452Z,17.40
2018-07-25T00:32:55.652Z,19.67
2018-07-25T00:35:23.887Z,17.48
2018-07-25T00:37:52.102Z,21.00
2018-07-25T00:40:20.347Z,17.70
2018-07-25T00:42:48.982Z,19.80
2018-07-25T00:45:18.159Z,17.52
2018-07-25T00:47:46.387Z,17.63
2018-07-25T00:50:14.583Z,18.10
2018-07-25T00:52:43.201Z,17.62
2018-07-25T00:55:11.425Z,21.33
2018-07-25T00:57:39.684Z,19.55
2018-07-25T01:00:07.920Z,17.17
2018-07-25T01:02:47.387Z,17.07
2018-07-25T01:05:15.778Z,16.87
2018-07-25T01:07:44.422Z,20.15
2018-07-25T01:10:12.698Z,18.63
2018-07-25T01:12:40.936Z,17.20
2018-07-25T01:15:10.123Z,19.33
2018-07-25T01:17:50.300Z,18.30
2018-07-25T01:20:18.555Z,19.03
2018-07-25T01:22:46.776Z,18.27
2018-07-25T01:25:15.736Z,20.65
2018-07-25T01:27:44.003Z,20.43
2018-07-25T01:30:12.280Z,16.37
2018-07-25T01:32:40.572Z,20.62
2018-07-25T01:35:08.772Z,17.33
2018-07-25T01:37:37.137Z,19.12
2018-07-25T01:40:05.380Z,20.47
2018-07-25T01:42:33.604Z,20.25
2018-07-25T01:45:01.837Z,25.03
2018-07-25T01:47:30.064Z,21.40
2018-07-25T01:50:02.539Z,20.33
2018-07-25T01:52:30.787Z,20.50
2018-07-25T01:54:59.180Z,19.53
2018-07-25T01:57:27.388Z,20.83
2018-07-25T01:59:55.616Z,21.40
2018-07-25T02:02:23.829Z,19.90
2018-07-25T02:04:52.032Z,21.83
2018-07-25T02:07:20.989Z,18.70
2018-07-25T02:09:49.868Z,20.20
2018-07-25T02:12:18.315Z,20.67
2018-07-25T02:14:46.550Z,23.47
2018-07-25T02:17:14.771Z,19.50
2018-07-25T02:19:43.040Z,20.67
2018-07-25T02:22:15.647Z,22.80
2018-07-25T02:24:44.024Z,26.03
2018-07-25T02:27:12.314Z,22.17
2018-07-25T02:29:40.552Z,28.07
2018-07-25T02:32:10.115Z,21.93
2018-07-25T02:34:38.389Z,20.00
2018-07-25T02:37:06.668Z,21.23
2018-07-25T02:39:34.688Z,21.00
2018-07-25T02:42:02.889Z,22.77
2018-07-25T02:44:31.124Z,20.00
2018-07-25T02:46:59.345Z,25.40
2018-07-25T02:49:27.606Z,21.37
2018-07-25T02:52:00.607Z,22.73
2018-07-25T02:54:28.848Z,28.97
2018-07-25T02:56:57.230Z,23.70
2018-07-25T02:59:25.406Z,24.93
2018-07-25T03:01:54.571Z,22.73
2018-07-25T03:04:22.848Z,23.10
2018-07-25T03:07:03.673Z,21.57
2018-07-25T03:09:31.952Z,33.57
2018-07-25T03:12:00.239Z,24.70
2018-07-25T03:14:28.208Z,30.00
2018-07-25T03:16:56.445Z,23.77
2018-07-25T03:19:24.721Z,23.90
2018-07-25T03:21:55.890Z,23.30
2018-07-25T03:24:24.151Z,23.27
2018-07-25T03:26:52.650Z,22.93
2018-07-25T03:29:22.154Z,23.05
2018-07-25T03:31:50.400Z,24.47
2018-07-25T03:34:18.652Z,31.67
2018-07-25T03:36:46.878Z,22.37
2018-07-25T03:39:15.128Z,23.45
2018-07-25T03:41:43.433Z,28.77
2018-07-25T03:44:11.681Z,28.90
2018-07-25T03:46:39.985Z,23.27
2018-07-25T03:49:08.668Z,22.97
2018-07-25T03:51:36.919Z,26.93
2018-07-25T03:54:06.430Z,26.60
2018-07-25T03:56:34.703Z,25.20
2018-07-25T03:59:02.981Z,25.07
2018-07-25T04:01:31.255Z,27.93
2018-07-25T04:04:00.121Z,25.70
2018-07-25T04:06:28.316Z,26.10
2018-07-25T04:08:56.696Z,24.37
2018-07-25T04:11:25.229Z,26.62
2018-07-25T04:13:53.479Z,22.73
2018-07-25T04:16:21.754Z,22.77
2018-07-25T04:18:50.508Z,24.70
2018-07-25T04:21:22.099Z,24.20
2018-07-25T04:23:50.898Z,25.90
2018-07-25T04:26:19.161Z,24.80
2018-07-25T04:28:47.466Z,26.75
2018-07-25T04:31:15.713Z,24.73
2018-07-25T04:33:43.988Z,26.00
2018-07-25T04:36:15.028Z,24.57
2018-07-25T04:38:43.613Z,25.53
2018-07-25T04:41:11.897Z,29.33
2018-07-25T04:43:40.647Z,24.37
2018-07-25T04:46:09.071Z,26.23
2018-07-25T04:48:37.415Z,24.93
2018-07-25T04:51:05.718Z,21.63
2018-07-25T04:53:37.979Z,21.03
2018-07-25T04:56:06.520Z,20.00
2018-07-25T04:58:34.700Z,20.60
2018-07-25T05:01:02.925Z,20.47
2018-07-25T05:03:31.327Z,18.77
2018-07-25T05:06:00.489Z,17.95
2018-07-25T05:08:28.740Z,21.13
2018-07-25T05:10:57.016Z,18.93
2018-07-25T05:13:25.884Z,17.60
2018-07-25T05:15:54.079Z,18.40
2018-07-25T05:18:22.350Z,20.23
2018-07-25T05:20:50.636Z,16.87
2018-07-25T05:23:18.938Z,19.13
2018-07-25T05:25:47.214Z,15.35
2018-07-25T05:28:15.498Z,14.83
2018-07-25T05:30:44.824Z,18.87
2018-07-25T05:33:13.130Z,15.87
2018-07-25T05:35:41.340Z,15.43
2018-07-25T05:38:09.956Z,14.98
2018-07-25T05:40:38.206Z,15.90
2018-07-25T05:43:06.483Z,17.90
2018-07-25T05:45:34.697Z,17.03
2018-07-25T05:48:02.926Z,19.33
2018-07-25T05:50:31.412Z,14.80
2018-07-25T05:53:02.972Z,16.73
2018-07-25T05:55:30.978Z,15.85
2018-07-25T05:57:59.415Z,15.08
2018-07-25T06:00:27.648Z,15.85
2018-07-25T06:02:56.413Z,14.63
2018-07-25T06:05:24.634Z,15.20
2018-07-25T06:07:52.890Z,18.17
2018-07-25T06:10:21.115Z,17.43
2018-07-25T06:12:49.588Z,14.70
2018-07-25T06:18:48.681Z,14.03
2018-07-25T06:21:16.935Z,20.23
2018-07-25T06:23:45.438Z,20.93
2018-07-25T06:26:14.203Z,16.75
2018-07-25T06:28:42.470Z,14.93
2018-07-25T06:31:10.759Z,13.40
2018-07-25T06:33:38.965Z,14.70
2018-07-25T06:36:07.556Z,11.70
2018-07-25T06:38:35.757Z,11.13
2018-07-25T06:41:03.988Z,14.57
2018-07-25T06:43:32.256Z,16.03
2018-07-25T06:46:00.504Z,11.57
2018-07-25T06:48:28.740Z,11.33
2018-07-25T06:50:56.951Z,10.40
2018-07-25T06:53:35.416Z,14.03
2018-07-25T06:56:03.596Z,10.08
2018-07-25T06:58:32.196Z,13.60
2018-07-25T07:01:00.400Z,14.90
2018-07-25T07:03:29.099Z,8.13
2018-07-25T07:05:57.339Z,12.20
2018-07-25T07:08:28.519Z,11.83
2018-07-25T07:10:56.716Z,12.00
2018-07-25T07:13:24.961Z,12.80
2018-07-25T07:15:53.154Z,9.70
2018-07-25T07:18:21.384Z,10.87
2018-07-25T07:20:49.597Z,10.97
2018-07-25T07:23:17.884Z,11.87
2018-07-25T07:25:46.132Z,10.00
2018-07-25T07:28:14.352Z,11.10
2018-07-25T07:30:42.723Z,10.87
2018-07-25T07:33:10.923Z,10.87
2018-07-25T07:35:39.312Z,14.90
2018-07-25T07:38:07.617Z,10.43
2018-07-25T07:40:43.654Z,12.93
2018-07-25T07:43:12.242Z,11.80
2018-07-25T07:45:40.509Z,9.10
2018-07-25T07:48:09.671Z,8.75
2018-07-25T07:50:38.048Z,10.00
2018-07-25T07:53:06.302Z,9.07
2018-07-25T07:55:38.191Z,9.20
2018-07-25T07:58:06.382Z,16.47
2018-07-25T08:00:34.814Z,8.65
2018-07-25T08:03:03.241Z,8.47
2018-07-25T08:05:31.871Z,12.30
2018-07-25T08:08:00.083Z,9.83
2018-07-25T08:10:35.701Z,6.80
2018-07-25T08:13:03.868Z,8.78
2018-07-25T08:15:32.109Z,10.43
2018-07-25T08:18:00.436Z,13.83
2018-07-25T08:20:28.644Z,10.70
2018-07-25T08:22:56.823Z,6.97
2018-07-25T08:25:36.877Z,8.43
2018-07-25T08:28:05.057Z,8.13
2018-07-25T08:30:33.297Z,5.80
2018-07-25T08:33:01.893Z,7.30
2018-07-25T08:35:30.078Z,8.10
2018-07-25T08:37:58.297Z,5.40
2018-07-25T08:40:34.276Z,6.62
2018-07-25T08:43:02.787Z,6.22
2018-07-25T08:45:31.036Z,8.65
2018-07-25T08:47:59.470Z,5.83
2018-07-25T08:50:27.812Z,9.05
2018-07-25T08:52:56.163Z,4.45
2018-07-25T08:55:27.396Z,7.12
2018-07-25T08:57:55.739Z,7.97
2018-07-25T09:00:23.983Z,6.90
2018-07-25T09:02:52.676Z,6.53
2018-07-25T09:05:21.006Z,4.53
2018-07-25T09:07:49.327Z,10.05
2018-07-25T09:10:17.679Z,8.98
2018-07-25T09:12:56.629Z,4.60
2018-07-25T09:15:24.785Z,5.72
2018-07-25T09:17:53.671Z,3.83
2018-07-25T09:20:21.984Z,4.90
2018-07-25T09:22:50.235Z,5.90
2018-07-25T09:25:19.236Z,8.27
2018-07-25T09:27:50.264Z,9.27
2018-07-25T09:30:19.726Z,4.70
2018-07-25T09:32:47.964Z,5.40
2018-07-25T09:35:16.172Z,5.00
2018-07-25T09:37:44.444Z,10.15
2018-07-25T09:40:12.687Z,9.77
2018-07-25T09:42:44.319Z,4.13
2018-07-25T09:45:12.535Z,3.80
2018-07-25T09:47:40.890Z,4.90
2018-07-25T09:50:10.300Z,5.78
2018-07-25T09:52:40.096Z,6.23
2018-07-25T09:55:09.741Z,6.57
2018-07-25T09:57:38.442Z,11.03
2018-07-25T10:00:09.674Z,3.90
2018-07-25T10:02:38.466Z,5.80
2018-07-25T10:05:07.127Z,4.10
2018-07-25T10:07:35.441Z,4.77
2018-07-25T10:10:03.695Z,3.93
2018-07-25T10:12:42.849Z,4.43
2018-07-25T10:15:11.970Z,8.40
2018-07-25T10:17:40.368Z,5.30
2018-07-25T10:20:08.824Z,3.80
2018-07-25T10:22:37.025Z,6.00
2018-07-25T10:25:05.325Z,3.83
2018-07-25T10:27:33.592Z,3.80
2018-07-25T10:30:01.830Z,4.57
2018-07-25T10:32:31.067Z,4.73
2018-07-25T10:34:59.429Z,4.67
2018-07-25T10:37:27.639Z,4.27
2018-07-25T10:39:55.973Z,6.75
2018-07-25T10:42:27.402Z,3.90
2018-07-25T10:44:56.506Z,4.17
2018-07-25T10:47:24.759Z,5.30
2018-07-25T10:49:53.069Z,4.60
2018-07-25T10:52:21.310Z,4.22
2018-07-25T10:54:49.565Z,6.37
2018-07-25T10:57:21.480Z,13.77
2018-07-25T10:59:49.728Z,5.67
2018-07-25T11:02:18.133Z,5.77
2018-07-25T11:04:46.574Z,4.30
2018-07-25T11:07:14.939Z,5.23
2018-07-25T11:09:43.551Z,6.50
2018-07-25T11:12:11.722Z,6.53
2018-07-25T11:14:46.420Z,14.73
2018-07-25T11:17:14.694Z,5.23
2018-07-25T11:19:42.969Z,4.33
2018-07-25T11:22:11.731Z,9.03
2018-07-25T11:24:40.014Z,7.28
2018-07-25T11:27:08.310Z,5.45
2018-07-25T11:29:37.150Z,7.20
2018-07-25T11:32:05.480Z,5.90
2018-07-25T11:34:33.768Z,8.83
2018-07-25T11:37:02.009Z,11.87
2018-07-25T11:39:30.332Z,5.42
2018-07-25T11:41:58.557Z,7.65
2018-07-25T11:44:26.807Z,8.85
2018-07-25T11:46:55.050Z,4.03
2018-07-25T11:49:23.318Z,5.90
2018-07-25T11:51:52.290Z,4.85
2018-07-25T11:54:20.692Z,4.30
2018-07-25T11:56:49.008Z,4.73
2018-07-25T11:59:20.685Z,4.30
2018-07-25T12:01:49.019Z,4.57
2018-07-25T12:04:17.203Z,10.77
2018-07-25T12:06:46.160Z,4.25
2018-07-25T12:09:14.435Z,8.20
2018-07-25T12:11:45.864Z,5.33
2018-07-25T12:14:19.829Z,7.00
2018-07-25T12:16:48.067Z,7.35
2018-07-25T12:19:16.891Z,4.60
2018-07-25T12:21:45.144Z,5.87
2018-07-25T12:24:13.411Z,6.05
2018-07-25T12:26:42.040Z,6.84
2018-07-25T12:29:10.249Z,3.83
2018-07-25T12:31:38.886Z,3.43
2018-07-25T12:34:07.107Z,6.00
2018-07-25T12:36:35.350Z,14.13
2018-07-25T12:39:04.322Z,4.00
2018-07-25T12:41:32.521Z,6.93
2018-07-25T12:44:12.079Z,4.60
2018-07-25T12:46:40.288Z,4.00
2018-07-25T12:49:08.537Z,4.10
2018-07-25T12:51:36.712Z,4.50
2018-07-25T12:54:05.363Z,3.97
2018-07-25T12:56:33.471Z,6.00
2018-07-25T12:59:01.721Z,4.77
2018-07-25T13:01:29.919Z,3.73
2018-07-25T13:03:58.200Z,3.52
2018-07-25T13:06:26.384Z,3.72
2018-07-25T13:08:54.667Z,3.63
2018-07-25T13:11:22.868Z,2.80
2018-07-25T13:13:51.071Z,2.63
2018-07-25T13:16:19.293Z,3.50
2018-07-25T13:18:47.550Z,3.25
2018-07-25T13:21:15.751Z,5.42
2018-07-25T13:23:44.096Z,4.87
2018-07-25T13:26:12.277Z,2.80
2018-07-25T13:28:40.539Z,5.07
2018-07-25T13:31:08.683Z,3.03
2018-07-25T13:33:36.928Z,3.87
2018-07-25T13:36:05.224Z,2.53
2018-07-25T13:38:33.387Z,5.00
2018-07-25T13:41:01.608Z,4.50
2018-07-25T13:43:29.782Z,4.43
2018-07-25T13:45:58.013Z,5.60
2018-07-25T13:48:26.223Z,8.03
2018-07-25T13:50:54.448Z,3.23
2018-07-25T13:53:22.707Z,4.73
2018-07-25T13:55:50.975Z,4.20
2018-07-25T13:58:19.224Z,4.30
2018-07-25T14:00:47.407Z,5.93
2018-07-25T14:03:19.172Z,9.63
2018-07-25T14:05:47.393Z,5.43
2018-07-25T14:08:15.699Z,5.27
2018-07-25T14:10:43.956Z,4.47
2018-07-25T14:13:12.280Z,3.83
2018-07-25T14:15:40.489Z,5.05
2018-07-25T14:18:08.833Z,2.73
2018-07-25T14:20:36.983Z,5.35
2018-07-25T14:23:05.571Z,3.03
2018-07-25T14:25:33.759Z,3.30
2018-07-25T14:28:01.995Z,6.03
2018-07-25T14:30:30.299Z,3.20
2018-07-25T14:32:58.413Z,5.03
2018-07-25T14:35:26.608Z,5.53
2018-07-25T14:37:54.824Z,6.65
2018-07-25T14:40:23.136Z,3.20
2018-07-25T14:42:51.251Z,4.90
2018-07-25T14:45:19.597Z,4.75
2018-07-25T14:47:47.817Z,2.80
2018-07-25T14:50:16.093Z,5.12
2018-07-25T14:52:44.349Z,3.03
2018-07-25T14:55:12.573Z,3.33
2018-07-25T14:57:41.007Z,5.27
2018-07-25T15:00:09.739Z,4.85
2018-07-25T15:02:42.193Z,2.80
2018-07-25T15:05:10.443Z,5.47
2018-07-25T15:07:39.612Z,2.60
2018-07-25T15:10:07.892Z,2.90
2018-07-25T15:12:41.820Z,6.97
2018-07-25T15:15:11.402Z,2.42
2018-07-25T15:17:40.429Z,2.75
2018-07-25T15:20:13.027Z,3.83
2018-07-25T15:22:41.374Z,4.42
2018-07-25T15:25:09.971Z,2.72
2018-07-25T15:27:38.194Z,3.02
2018-07-25T15:30:07.848Z,3.93
2018-07-25T15:32:38.916Z,2.83
2018-07-25T15:35:07.603Z,4.10
2018-07-25T15:37:36.412Z,4.62
2018-07-25T15:40:05.280Z,6.33
2018-07-25T15:42:33.491Z,4.25
2018-07-25T15:45:01.730Z,3.35
2018-07-25T15:47:33.779Z,2.77
2018-07-25T15:50:08.527Z,2.50
2018-07-25T15:52:36.748Z,4.10
2018-07-25T15:55:05.023Z,3.93
2018-07-25T15:57:33.427Z,4.70
2018-07-25T16:00:01.668Z,4.23
2018-07-25T16:02:33.199Z,2.45
2018-07-25T16:05:01.152Z,5.07
2018-07-25T16:07:29.388Z,5.60
2018-07-25T16:09:57.691Z,6.97
2018-07-25T16:12:26.135Z,2.90
2018-07-25T16:14:54.435Z,3.30
2018-07-25T16:17:22.747Z,5.30
2018-07-25T16:19:51.032Z,4.17
2018-07-25T16:22:19.340Z,4.07
2018-07-25T16:24:47.977Z,9.47
2018-07-25T16:27:17.313Z,3.72
2018-07-25T16:29:45.670Z,4.08
2018-07-25T16:32:13.911Z,3.20
2018-07-25T16:34:42.236Z,6.00
2018-07-25T16:37:10.768Z,4.00
2018-07-25T16:39:39.063Z,5.23
2018-07-25T16:42:07.614Z,5.97
2018-07-25T16:44:36.614Z,3.87
2018-07-25T16:47:05.048Z,2.98
2018-07-25T16:49:37.513Z,3.73
2018-07-25T16:52:05.722Z,7.92
2018-07-25T16:54:33.959Z,3.57
2018-07-25T16:57:02.003Z,3.20
2018-07-25T16:59:30.270Z,2.87
2018-07-25T17:01:58.472Z,6.78
2018-07-25T17:04:30.207Z,1.90
2018-07-25T17:06:58.452Z,2.13
2018-07-25T17:09:27.070Z,8.15
2018-07-25T17:11:55.271Z,2.90
2018-07-25T17:14:23.692Z,2.70
2018-07-25T17:16:51.967Z,2.20
2018-07-25T17:19:23.164Z,4.47
2018-07-25T17:21:51.359Z,1.87
2018-07-25T17:24:20.588Z,2.33
2018-07-25T17:26:48.759Z,2.00
2018-07-25T17:29:16.984Z,3.27
2018-07-25T17:31:45.240Z,2.60
2018-07-25T17:34:13.458Z,4.57
2018-07-25T17:36:41.864Z,2.37
2018-07-25T17:39:11.249Z,4.00
2018-07-25T17:41:40.279Z,2.33
2018-07-25T17:44:08.591Z,2.37
2018-07-25T17:46:36.790Z,2.70
2018-07-25T17:49:08.008Z,2.13
2018-07-25T17:51:37.257Z,1.70
2018-07-25T17:54:05.608Z,2.53
2018-07-25T17:56:33.907Z,3.93
2018-07-25T17:59:02.138Z,3.03
2018-07-25T18:01:30.361Z,4.67
2018-07-25T18:03:58.600Z,4.12
2018-07-25T18:06:26.826Z,3.83
2018-07-25T18:08:55.348Z,3.97
2018-07-25T18:11:23.565Z,3.80
2018-07-25T18:13:57.198Z,3.52
2018-07-25T18:16:25.661Z,4.08
2018-07-25T18:18:54.414Z,2.30
2018-07-25T18:21:22.732Z,2.50
2018-07-25T18:23:51.878Z,3.83
2018-07-25T18:26:20.120Z,10.03
2018-07-25T18:28:48.383Z,5.03
2018-07-25T18:31:17.058Z,3.95
2018-07-25T18:33:45.356Z,3.43
2018-07-25T18:36:13.589Z,3.60
2018-07-25T18:38:41.827Z,6.10
2018-07-25T18:41:10.465Z,2.87
2018-07-25T18:43:38.656Z,8.80
2018-07-25T18:46:06.969Z,7.30
2018-07-25T18:48:41.925Z,7.10
2018-07-25T18:51:16.019Z,9.20
2018-07-25T18:53:44.623Z,3.55
2018-07-25T18:56:20.105Z,6.65
2018-07-25T18:58:49.543Z,2.60
2018-07-25T19:01:17.966Z,3.60
2018-07-25T19:03:46.154Z,3.93
2018-07-25T19:06:14.432Z,11.10
2018-07-25T19:08:42.660Z,4.60
2018-07-25T19:11:11.063Z,7.13
2018-07-25T19:13:39.303Z,5.77
2018-07-25T19:16:07.513Z,3.67
2018-07-25T19:18:35.757Z,6.33
2018-07-25T19:21:03.970Z,3.52
2018-07-25T19:23:33.186Z,4.23
2018-07-25T19:26:01.517Z,5.40
2018-07-25T19:28:29.778Z,2.73
2018-07-25T19:30:58.389Z,6.78
2018-07-25T19:33:26.804Z,5.80
2018-07-25T19:35:59.442Z,7.13
2018-07-25T19:38:27.698Z,5.50
2018-07-25T19:40:55.948Z,3.90
2018-07-25T19:43:24.253Z,3.20
2018-07-25T19:45:52.479Z,5.47
2018-07-25T19:48:20.771Z,6.10
2018-07-25T19:50:48.978Z,6.23
2018-07-25T19:53:18.101Z,7.60
2018-07-25T19:55:46.411Z,6.07
2018-07-25T19:58:14.636Z,10.10
2018-07-25T20:00:43.276Z,6.90
2018-07-25T20:03:11.495Z,8.20
2018-07-25T20:05:39.969Z,10.97
2018-07-25T20:08:08.163Z,4.58
2018-07-25T20:10:36.382Z,4.17
2018-07-25T20:13:04.567Z,7.87
2018-07-25T20:15:38.251Z,8.13
2018-07-25T20:18:07.162Z,5.28
2018-07-25T20:20:35.389Z,3.73
2018-07-25T20:23:10.765Z,6.97
2018-07-25T20:25:39.231Z,7.58
2018-07-25T20:28:07.427Z,4.87
2018-07-25T20:30:35.671Z,7.60
2018-07-25T20:33:03.662Z,10.13
2018-07-25T20:35:31.888Z,14.23
2018-07-25T20:38:03.659Z,8.05
2018-07-25T20:40:31.874Z,7.80
2018-07-25T20:43:00.155Z,5.80
2018-07-25T20:45:29.039Z,7.90
2018-07-25T20:47:57.305Z,4.77
2018-07-25T20:50:25.555Z,9.98
2018-07-25T20:52:53.967Z,5.67
2018-07-25T20:55:22.136Z,6.10
2018-07-25T20:57:50.372Z,9.00
2018-07-25T21:00:22.879Z,6.90
2018-07-25T21:02:51.132Z,4.87
2018-07-25T21:05:19.325Z,7.70
2018-07-25T21:07:50.582Z,5.90
2018-07-25T21:10:19.460Z,4.60
2018-07-25T21:12:47.753Z,8.17
2018-07-25T21:15:15.970Z,5.23
2018-07-25T21:17:44.184Z,6.10
2018-07-25T21:20:12.233Z,5.93
2018-07-25T21:22:40.441Z,5.40
2018-07-25T21:25:08.819Z,6.17
2018-07-25T21:27:37.371Z,7.70
2018-07-25T21:30:05.586Z,6.85
2018-07-25T21:32:33.978Z,6.60
2018-07-25T21:35:02.175Z,4.80
2018-07-25T21:37:30.700Z,7.10
2018-07-25T21:40:01.916Z,7.00
2018-07-25T21:42:30.137Z,5.90
2018-07-25T21:44:58.553Z,8.70
2018-07-25T21:47:26.788Z,7.40
2018-07-25T21:49:55.024Z,8.90
2018-07-25T21:52:23.208Z,8.50
2018-07-25T21:54:54.667Z,4.83
2018-07-25T21:57:23.563Z,8.40
2018-07-25T21:59:51.745Z,7.40
2018-07-25T22:02:19.959Z,6.65
2018-07-25T22:04:48.188Z,9.60
2018-07-25T22:07:16.372Z,8.37
2018-07-25T22:09:47.606Z,9.70
2018-07-25T22:12:15.856Z,9.70
2018-07-25T22:14:44.125Z,5.10
2018-07-25T22:17:12.411Z,8.27
2018-07-25T22:19:40.641Z,7.53
2018-07-25T22:22:08.841Z,6.97
2018-07-25T22:24:40.516Z,7.00
2018-07-25T22:27:08.716Z,7.20
2018-07-25T22:29:36.695Z,6.03
2018-07-25T22:32:04.940Z,4.93
2018-07-25T22:34:33.235Z,6.83
2018-07-25T22:37:01.457Z,7.85
2018-07-25T22:39:33.551Z,10.17
2018-07-25T22:42:01.759Z,7.77
2018-07-25T22:44:29.999Z,6.70
2018-07-25T22:46:58.221Z,6.97
2018-07-25T22:49:26.452Z,5.80
2018-07-25T22:51:54.642Z,6.27
2018-07-25T22:54:25.771Z,7.65
2018-07-25T22:56:54.042Z,8.90
2018-07-25T22:59:23.143Z,10.00
2018-07-25T23:01:51.376Z,11.13
2018-07-25T23:04:19.579Z,12.30
2018-07-25T23:06:48.213Z,9.67
2018-07-25T23:09:20.233Z,10.30
2018-07-25T23:11:48.612Z,7.83
2018-07-25T23:14:16.931Z,8.28
2018-07-25T23:16:44.867Z,8.63
2018-07-25T23:19:13.246Z,7.87
2018-07-25T23:21:41.500Z,9.27
2018-07-25T23:24:09.753Z,9.30
2018-07-25T23:26:42.261Z,7.10
2018-07-25T23:29:10.572Z,13.73
2018-07-25T23:31:38.808Z,7.07
2018-07-25T23:34:07.093Z,9.00
2018-07-25T23:36:35.260Z,9.50
2018-07-25T23:39:04.529Z,7.37
2018-07-25T23:41:33.408Z,7.53
2018-07-25T23:44:01.629Z,7.75
2018-07-25T23:46:29.865Z,7.20
2018-07-25T23:48:58.044Z,9.90
2018-07-25T23:51:26.276Z,7.10
2018-07-25T23:53:54.495Z,6.50
2018-07-25T23:56:22.799Z,11.63
2018-07-25T23:58:51.014Z,11.97
